createdAt,value
2018-08-11T00:00:07.017Z,101031.85
2018-08-11T00:02:34.868Z,101034.28
2018-08-11T00:05:02.855Z,101031.75
2018-08-11T00:07:30.764Z,101025.34
2018-08-11T00:09:58.626Z,101025.30
2018-08-11T00:12:26.576Z,101027.41
2018-08-11T00:14:54.556Z,101022.49
2018-08-11T00:17:22.491Z,101021.38
2018-08-11T00:19:50.388Z,101025.02
2018-08-11T00:24:44.115Z,101018.61
2018-08-11T00:27:12.095Z,101011.38
2018-08-11T00:29:40.097Z,101016.56
2018-08-11T00:32:08.164Z,101015.70
2018-08-11T00:34:36.175Z,101010.23
2018-08-11T00:37:04.300Z,101007.14
2018-08-11T00:39:32.960Z,101005.59
2018-08-11T00:42:01.052Z,101007.18
2018-08-11T00:44:29.153Z,101008.51
2018-08-11T00:46:57.380Z,101005.19
2018-08-11T00:49:25.262Z,101009.56
2018-08-11T00:51:53.071Z,101007.40
2018-08-11T00:54:20.860Z,101007.12
2018-08-11T00:56:48.795Z,101005.13
2018-08-11T00:59:16.635Z,101009.83
2018-08-11T01:01:44.507Z,101009.78
2018-08-11T01:04:12.434Z,101013.20
2018-08-11T01:06:40.411Z,101010.77
2018-08-11T01:09:10.164Z,101012.87
2018-08-11T01:11:38.102Z,101011.53
2018-08-11T01:14:06.033Z,101014.59
2018-08-11T01:16:33.958Z,101013.48
2018-08-11T01:19:01.803Z,101015.20
2018-08-11T01:21:29.720Z,101020.21
2018-08-11T01:23:57.577Z,101019.95
2018-08-11T01:26:25.473Z,101020.06
2018-08-11T01:28:53.287Z,101016.80
2018-08-11T01:31:21.219Z,101012.92
2018-08-11T01:33:49.039Z,101015.23
2018-08-11T01:36:16.863Z,101018.36
2018-08-11T01:38:44.743Z,101015.66
2018-08-11T01:41:12.533Z,101009.35
2018-08-11T01:43:40.419Z,101018.79
2018-08-11T01:46:08.176Z,101014.95
2018-08-11T01:48:35.948Z,101011.05
2018-08-11T01:51:03.791Z,101011.28
2018-08-11T01:53:31.652Z,101005.80
2018-08-11T01:55:59.427Z,101008.05
2018-08-11T01:58:27.380Z,101009.70
2018-08-11T02:00:55.238Z,101006.11
2018-08-11T02:03:23.148Z,101006.94
2018-08-11T02:05:51.076Z,101006.70
2018-08-11T02:08:18.997Z,101005.91
2018-08-11T02:10:46.817Z,101002.30
2018-08-11T02:13:14.768Z,101007.28
2018-08-11T02:15:42.599Z,101000.09
2018-08-11T02:18:10.532Z,101005.63
2018-08-11T02:20:38.436Z,100995.67
2018-08-11T02:23:06.324Z,100996.50
2018-08-11T02:25:34.256Z,100997.61
2018-08-11T02:28:02.099Z,100996.77
2018-08-11T02:30:29.973Z,100998.16
2018-08-11T02:32:57.861Z,100995.70
2018-08-11T02:35:25.680Z,100997.08
2018-08-11T02:37:53.526Z,100995.70
2018-08-11T02:40:21.456Z,100989.62
2018-08-11T02:42:49.310Z,100997.91
2018-08-11T02:45:17.429Z,100991.83
2018-08-11T02:47:46.295Z,100992.66
2018-08-11T02:50:14.115Z,100991.27
2018-08-11T02:52:42.356Z,100995.98
2018-08-11T02:55:10.527Z,100995.42
2018-08-11T02:57:38.367Z,100997.91
2018-08-11T03:00:08.645Z,100998.70
2018-08-11T03:02:36.857Z,101000.62
2018-08-11T03:05:04.880Z,101002.61
2018-08-11T03:07:32.972Z,101001.20
2018-08-11T03:10:00.885Z,101002.86
2018-08-11T03:12:28.765Z,100998.70
2018-08-11T03:14:56.652Z,101004.23
2018-08-11T03:17:24.476Z,101002.58
2018-08-11T03:19:52.297Z,101004.23
2018-08-11T03:22:20.137Z,100999.27
2018-08-11T03:24:48.099Z,101002.00
2018-08-11T03:27:15.955Z,101009.46
2018-08-11T03:29:43.829Z,101010.84
2018-08-11T03:32:11.648Z,101012.50
2018-08-11T03:34:39.460Z,101016.37
2018-08-11T03:37:07.319Z,101016.34
2018-08-11T03:39:35.224Z,101015.51
2018-08-11T03:42:03.112Z,101018.23
2018-08-11T03:44:30.929Z,101020.45
2018-08-11T03:46:58.816Z,101027.08
2018-08-11T03:49:29.034Z,101026.84
2018-08-11T03:51:56.851Z,101028.81
2018-08-11T03:54:24.692Z,101034.62
2018-08-11T03:56:52.550Z,101027.73
2018-08-11T03:59:21.889Z,101033.55
2018-08-11T04:01:49.789Z,101035.23
2018-08-11T04:04:17.569Z,101036.06
2018-08-11T04:06:45.504Z,101032.75
2018-08-11T04:09:13.283Z,101037.72
2018-08-11T04:11:41.160Z,101037.72
2018-08-11T04:14:09.034Z,101041.35
2018-08-11T04:16:37.080Z,101050.75
2018-08-11T04:19:05.016Z,101049.38
2018-08-11T04:21:32.845Z,101050.20
2018-08-11T04:24:00.712Z,101054.35
2018-08-11T04:26:28.632Z,101046.64
2018-08-11T04:28:56.508Z,101050.78
2018-08-11T04:31:24.377Z,101054.66
2018-08-11T04:33:52.194Z,101054.66
2018-08-11T04:36:20.269Z,101050.23
2018-08-11T04:38:48.091Z,101056.31
2018-08-11T04:41:15.939Z,101053.00
2018-08-11T04:43:43.966Z,101051.89
2018-08-11T04:46:11.795Z,101061.02
2018-08-11T04:48:39.628Z,101058.80
2018-08-11T04:51:07.579Z,101056.88
2018-08-11T04:53:35.747Z,101059.91
2018-08-11T04:56:03.576Z,101060.74
2018-08-11T04:58:31.375Z,101059.60
2018-08-11T05:00:59.264Z,101067.07
2018-08-11T05:03:27.103Z,101063.20
2018-08-11T05:05:54.856Z,101070.11
2018-08-11T05:08:22.645Z,101070.70
2018-08-11T05:10:50.459Z,101072.88
2018-08-11T05:13:18.222Z,101074.53
2018-08-11T05:15:46.100Z,101076.23
2018-08-11T05:18:13.915Z,101077.89
2018-08-11T05:20:41.835Z,101081.52
2018-08-11T05:23:09.675Z,101080.72
2018-08-11T05:25:37.480Z,101087.39
2018-08-11T05:28:06.047Z,101078.25
2018-08-11T05:30:33.860Z,101083.81
2018-08-11T05:33:01.683Z,101077.48
2018-08-11T05:35:29.483Z,101082.48
2018-08-11T05:37:57.287Z,101076.73
2018-08-11T05:40:25.160Z,101086.19
2018-08-11T05:42:53.235Z,101086.21
2018-08-11T05:45:21.026Z,101087.33
2018-08-11T05:47:48.829Z,101093.45
2018-08-11T05:50:16.683Z,101101.47
2018-08-11T05:52:44.503Z,101095.92
2018-08-11T05:55:12.336Z,101101.23
2018-08-11T05:57:40.183Z,101104.83
2018-08-11T06:00:09.484Z,101100.11
2018-08-11T06:02:37.528Z,101099.28
2018-08-11T06:05:05.765Z,101084.84
2018-08-11T06:07:33.659Z,101095.38
2018-08-11T06:10:01.459Z,101098.96
2018-08-11T06:12:29.318Z,101095.92
2018-08-11T06:14:57.203Z,101098.11
2018-08-11T06:17:25.075Z,101103.37
2018-08-11T06:19:52.833Z,101100.02
2018-08-11T06:22:20.650Z,101102.73
2018-08-11T06:24:48.425Z,101110.49
2018-08-11T06:27:16.263Z,101117.69
2018-08-11T06:29:44.043Z,101113.17
2018-08-11T06:32:11.982Z,101114.78
2018-08-11T06:34:39.824Z,101125.24
2018-08-11T06:37:07.609Z,101127.76
2018-08-11T06:39:35.481Z,101128.46
2018-08-11T06:42:03.297Z,101124.45
2018-08-11T06:44:31.242Z,101128.66
2018-08-11T06:46:59.114Z,101126.45
2018-08-11T06:49:26.894Z,101133.06
2018-08-11T06:51:54.643Z,101127.74
2018-08-11T06:54:22.428Z,101137.12
2018-08-11T06:56:50.406Z,101132.40
2018-08-11T06:59:18.207Z,101133.98
2018-08-11T07:01:46.041Z,101133.45
2018-08-11T07:04:13.843Z,101138.45
2018-08-11T07:06:41.747Z,101140.35
2018-08-11T07:09:10.261Z,101136.48
2018-08-11T07:11:38.473Z,101132.95
2018-08-11T07:14:06.370Z,101129.38
2018-08-11T07:16:34.164Z,101135.19
2018-08-11T07:19:01.955Z,101130.19
2018-08-11T07:21:29.828Z,101135.48
2018-08-11T07:23:57.654Z,101131.91
2018-08-11T07:26:25.486Z,101133.82
2018-08-11T07:28:53.346Z,101132.48
2018-08-11T07:31:21.187Z,101130.80
2018-08-11T07:33:49.000Z,101142.75
2018-08-11T07:36:16.911Z,101145.55
2018-08-11T07:38:44.703Z,101139.99
2018-08-11T07:41:12.537Z,101137.77
2018-08-11T07:43:40.407Z,101141.98
2018-08-11T07:46:08.248Z,101140.83
2018-08-11T07:48:36.097Z,101140.58
2018-08-11T07:51:03.912Z,101140.58
2018-08-11T07:53:31.675Z,101142.26
2018-08-11T07:55:59.534Z,101141.16
2018-08-11T07:58:27.327Z,101146.97
2018-08-11T08:00:55.538Z,101139.48
2018-08-11T08:03:23.510Z,101136.98
2018-08-11T08:05:51.431Z,101135.83
2018-08-11T08:08:19.330Z,101138.85
2018-08-11T08:10:47.905Z,101137.71
2018-08-11T08:13:15.779Z,101136.53
2018-08-11T08:15:43.647Z,101138.16
2018-08-11T08:18:11.556Z,101133.48
2018-08-11T08:20:39.332Z,101130.44
2018-08-11T08:23:07.161Z,101116.58
2018-08-11T08:25:35.224Z,101125.75
2018-08-11T08:28:03.043Z,101130.72
2018-08-11T08:30:30.932Z,101125.67
2018-08-11T08:32:58.803Z,101126.92
2018-08-11T08:35:26.591Z,101125.55
2018-08-11T08:37:54.416Z,101117.11
2018-08-11T08:40:22.305Z,101118.38
2018-08-11T08:42:50.106Z,101122.25
2018-08-11T08:45:17.951Z,101129.97
2018-08-11T08:47:45.743Z,101124.31
2018-08-11T08:50:13.604Z,101125.24
2018-08-11T08:52:41.446Z,101132.66
2018-08-11T08:55:09.271Z,101132.16
2018-08-11T08:57:37.123Z,101131.59
2018-08-11T09:00:05.456Z,101124.81
2018-08-11T09:02:33.320Z,101121.56
2018-08-11T09:05:01.139Z,101119.28
2018-08-11T09:07:28.956Z,101121.20
2018-08-11T09:09:56.751Z,101111.17
2018-08-11T09:12:24.663Z,101114.73
2018-08-11T09:14:52.523Z,101115.56
2018-08-11T09:17:20.356Z,101119.14
2018-08-11T09:19:48.101Z,101117.48
2018-08-11T09:22:15.966Z,101109.28
2018-08-11T09:24:43.816Z,101110.52
2018-08-11T09:27:11.626Z,101115.42
2018-08-11T09:29:39.478Z,101098.27
2018-08-11T09:32:07.345Z,101115.59
2018-08-11T09:34:35.247Z,101112.36
2018-08-11T09:37:02.991Z,101103.87
2018-08-11T09:39:30.771Z,101108.47
2018-08-11T09:41:58.556Z,101106.75
2018-08-11T09:44:26.366Z,101105.84
2018-08-11T09:46:54.154Z,101103.38
2018-08-11T09:49:21.933Z,101100.84
2018-08-11T09:51:49.779Z,101104.95
2018-08-11T09:54:17.594Z,101106.16
2018-08-11T09:56:45.430Z,101105.28
2018-08-11T09:59:13.265Z,101104.55
2018-08-11T10:01:41.823Z,101101.58
2018-08-11T10:04:09.787Z,101090.10
2018-08-11T10:06:37.631Z,101091.69
2018-08-11T10:09:09.063Z,101092.64
2018-08-11T10:11:36.847Z,101085.66
2018-08-11T10:14:05.084Z,101093.00
2018-08-11T10:16:32.866Z,101081.05
2018-08-11T10:19:00.739Z,101078.38
2018-08-11T10:21:28.509Z,101087.02
2018-08-11T10:23:56.422Z,101087.69
2018-08-11T10:26:24.279Z,101079.14
2018-08-11T10:28:52.100Z,101082.06
2018-08-11T10:31:19.907Z,101081.44
2018-08-11T10:33:47.780Z,101077.94
2018-08-11T10:36:15.608Z,101080.73
2018-08-11T10:38:43.467Z,101075.84
2018-08-11T10:41:11.364Z,101075.27
2018-08-11T10:43:39.275Z,101072.33
2018-08-11T10:46:07.048Z,101080.70
2018-08-11T10:48:34.867Z,101070.52
2018-08-11T10:51:02.646Z,101070.58
2018-08-11T10:53:30.467Z,101061.88
2018-08-11T10:55:58.264Z,101059.59
2018-08-11T10:58:26.023Z,101064.36
2018-08-11T11:00:53.787Z,101061.53
2018-08-11T11:03:21.616Z,101058.52
2018-08-11T11:05:49.427Z,101062.09
2018-08-11T11:08:17.310Z,101051.66
2018-08-11T11:10:45.050Z,101050.04
2018-08-11T11:13:12.862Z,101049.51
2018-08-11T11:15:40.623Z,101057.56
2018-08-11T11:18:08.383Z,101052.84
2018-08-11T11:20:36.215Z,101043.77
2018-08-11T11:23:04.232Z,101045.33
2018-08-11T11:25:31.931Z,101050.44
2018-08-11T11:27:59.771Z,101038.88
2018-08-11T11:30:27.674Z,101041.53
2018-08-11T11:32:55.459Z,101039.46
2018-08-11T11:35:23.256Z,101037.67
2018-08-11T11:37:51.103Z,101037.48
2018-08-11T11:40:18.907Z,101037.12
2018-08-11T11:42:46.724Z,101043.47
2018-08-11T11:45:14.601Z,101035.20
2018-08-11T11:47:42.439Z,101039.02
2018-08-11T11:50:10.236Z,101032.36
2018-08-11T11:52:38.018Z,101036.27
2018-08-11T11:55:05.931Z,101036.67
2018-08-11T11:57:33.667Z,101038.42
2018-08-11T12:00:01.450Z,101032.25
2018-08-11T12:02:29.283Z,101034.38
2018-08-11T12:04:57.059Z,101014.30
2018-08-11T12:07:24.823Z,101021.98
2018-08-11T12:09:52.631Z,101027.77
2018-08-11T12:12:20.439Z,101018.97
2018-08-11T12:14:48.243Z,101020.98
2018-08-11T12:17:16.068Z,101025.23
2018-08-11T12:19:43.908Z,101027.65
2018-08-11T12:22:11.723Z,101016.89
2018-08-11T12:24:39.516Z,101018.62
2018-08-11T12:27:07.423Z,101017.89
2018-08-11T12:29:35.285Z,101015.91
2018-08-11T12:32:03.109Z,101017.00
2018-08-11T12:34:30.885Z,101009.48
2018-08-11T12:36:58.647Z,101004.69
2018-08-11T12:39:26.555Z,100999.53
2018-08-11T12:41:54.390Z,101004.92
2018-08-11T12:44:22.223Z,101010.63
2018-08-11T12:46:50.062Z,101006.36
2018-08-11T12:49:17.875Z,101001.11
2018-08-11T12:51:45.717Z,100999.13
2018-08-11T12:54:13.576Z,100999.84
2018-08-11T12:56:41.427Z,101003.80
2018-08-11T12:59:09.195Z,101002.44
2018-08-11T13:01:37.256Z,100996.87
2018-08-11T13:04:05.229Z,101001.57
2018-08-11T13:06:33.019Z,101002.45
2018-08-11T13:09:00.833Z,101004.73
2018-08-11T13:11:28.728Z,101005.39
2018-08-11T13:13:56.636Z,100995.36
2018-08-11T13:16:24.419Z,101004.08
2018-08-11T13:18:52.464Z,101002.66
2018-08-11T13:21:20.329Z,101001.78
2018-08-11T13:23:48.151Z,101014.30
2018-08-11T13:26:16.079Z,101007.72
2018-08-11T13:28:43.971Z,101007.04
2018-08-11T13:31:11.783Z,101001.98
2018-08-11T13:33:39.623Z,100996.67
2018-08-11T13:36:07.411Z,101007.57
2018-08-11T13:38:35.309Z,100997.58
2018-08-11T13:41:03.182Z,100999.53
2018-08-11T13:43:31.055Z,100993.66
2018-08-11T13:45:58.919Z,100986.19
2018-08-11T13:48:26.667Z,100998.65
2018-08-11T13:50:54.412Z,100999.23
2018-08-11T13:53:22.199Z,100995.80
2018-08-11T13:55:53.351Z,100998.30
2018-08-11T13:58:21.147Z,100996.91
2018-08-11T14:00:52.021Z,100993.23
2018-08-11T14:03:19.848Z,100975.05
2018-08-11T14:05:51.103Z,100984.59
2018-08-11T14:08:19.240Z,100979.73
2018-08-11T14:10:47.004Z,100985.21
2018-08-11T14:13:15.020Z,100981.58
2018-08-11T14:15:42.767Z,100972.40
2018-08-11T14:18:18.037Z,100972.22
2018-08-11T14:20:46.000Z,100974.77
2018-08-11T14:23:13.831Z,100975.30
2018-08-11T14:25:41.658Z,100970.62
2018-08-11T14:28:09.473Z,100964.32
2018-08-11T14:30:37.344Z,100960.36
2018-08-11T14:33:05.168Z,100960.09
2018-08-11T14:35:32.980Z,100962.86
2018-08-11T14:38:00.800Z,100963.84
2018-08-11T14:40:28.619Z,100961.92
2018-08-11T14:42:56.403Z,100956.30
2018-08-11T14:45:24.179Z,100953.25
2018-08-11T14:47:52.045Z,100956.34
2018-08-11T14:50:19.702Z,100947.36
2018-08-11T14:52:47.547Z,100949.83
2018-08-11T14:55:15.457Z,100951.63
2018-08-11T14:57:43.235Z,100953.89
2018-08-11T15:00:12.680Z,100950.48
2018-08-11T15:02:40.927Z,100938.57
2018-08-11T15:05:09.320Z,100937.02
2018-08-11T15:07:37.593Z,100933.25
2018-08-11T15:10:06.314Z,100933.36
2018-08-11T15:12:34.219Z,100936.03
2018-08-11T15:15:02.049Z,100932.82
2018-08-11T15:17:29.888Z,100933.84
2018-08-11T15:19:57.687Z,100941.25
2018-08-11T15:22:25.518Z,100935.27
2018-08-11T15:24:53.316Z,100934.20
2018-08-11T15:27:21.185Z,100929.64
2018-08-11T15:29:49.095Z,100930.03
2018-08-11T15:32:16.931Z,100924.14
2018-08-11T15:34:44.688Z,100929.59
2018-08-11T15:37:12.476Z,100921.33
2018-08-11T15:39:40.333Z,100923.92
2018-08-11T15:42:08.063Z,100925.38
2018-08-11T15:44:35.943Z,100923.21
2018-08-11T15:47:03.968Z,100926.90
2018-08-11T15:49:31.763Z,100923.34
2018-08-11T15:51:59.631Z,100921.12
2018-08-11T15:54:27.497Z,100921.46
2018-08-11T15:56:55.280Z,100920.94
2018-08-11T15:59:23.137Z,100930.31
2018-08-11T16:01:51.008Z,100925.42
2018-08-11T16:04:18.790Z,100922.92
2018-08-11T16:06:46.648Z,100928.18
2018-08-11T16:09:14.452Z,100924.80
2018-08-11T16:11:42.200Z,100915.77
2018-08-11T16:14:10.056Z,100921.79
2018-08-11T16:16:37.843Z,100924.25
2018-08-11T16:19:05.746Z,100922.51
2018-08-11T16:21:33.547Z,100929.97
2018-08-11T16:24:01.415Z,100919.83
2018-08-11T16:26:29.185Z,100925.88
2018-08-11T16:28:56.951Z,100919.45
2018-08-11T16:31:24.951Z,100919.95
2018-08-11T16:33:52.921Z,100916.84
2018-08-11T16:36:20.718Z,100913.69
2018-08-11T16:38:48.551Z,100915.28
2018-08-11T16:41:16.475Z,100917.16
2018-08-11T16:43:44.270Z,100907.83
2018-08-11T16:46:12.038Z,100915.18
2018-08-11T16:48:39.867Z,100915.92
2018-08-11T16:51:07.743Z,100913.64
2018-08-11T16:53:35.574Z,100906.69
2018-08-11T16:56:03.447Z,100899.67
2018-08-11T16:58:31.305Z,100909.35
2018-08-11T17:00:59.200Z,100911.13
2018-08-11T17:03:27.011Z,100904.47
2018-08-11T17:05:54.936Z,100899.59
2018-08-11T17:08:22.659Z,100905.45
2018-08-11T17:10:50.642Z,100913.37
2018-08-11T17:13:18.395Z,100911.12
2018-08-11T17:15:46.260Z,100912.13
2018-08-11T17:18:14.195Z,100911.27
2018-08-11T17:20:42.010Z,100914.31
2018-08-11T17:23:09.799Z,100912.23
2018-08-11T17:25:37.716Z,100908.86
2018-08-11T17:28:05.692Z,100903.69
2018-08-11T17:30:33.579Z,100910.92
2018-08-11T17:33:01.356Z,100906.43
2018-08-11T17:35:29.168Z,100918.55
2018-08-11T17:37:56.995Z,100911.43
2018-08-11T17:40:24.842Z,100919.14
2018-08-11T17:42:52.670Z,100915.05
2018-08-11T17:45:20.565Z,100910.70
2018-08-11T17:47:48.403Z,100902.80
2018-08-11T17:50:16.280Z,100906.28
2018-08-11T17:52:44.084Z,100914.13
2018-08-11T17:55:11.956Z,100909.73
2018-08-11T17:57:39.764Z,100911.17
2018-08-11T18:00:07.672Z,100916.52
2018-08-11T18:02:35.511Z,100915.57
2018-08-11T18:05:03.852Z,100916.64
2018-08-11T18:07:32.209Z,100914.29
2018-08-11T18:10:00.040Z,100915.56
2018-08-11T18:12:27.859Z,100914.03
2018-08-11T18:14:55.647Z,100917.41
2018-08-11T18:17:23.398Z,100915.41
2018-08-11T18:19:51.298Z,100917.71
2018-08-11T18:22:19.011Z,100916.52
2018-08-11T18:24:46.916Z,100912.28
2018-08-11T18:27:14.715Z,100915.97
2018-08-11T18:29:42.574Z,100911.69
2018-08-11T18:32:10.439Z,100912.51
2018-08-11T18:34:38.331Z,100915.48
2018-08-11T18:37:06.151Z,100918.20
2018-08-11T18:39:33.927Z,100924.43
2018-08-11T18:42:01.759Z,100922.10
2018-08-11T18:44:29.532Z,100923.94
2018-08-11T18:46:57.383Z,100926.98
2018-08-11T18:49:25.360Z,100930.52
2018-08-11T18:51:53.172Z,100926.94
2018-08-11T18:54:20.991Z,100934.42
2018-08-11T18:56:48.874Z,100931.13
2018-08-11T18:59:16.722Z,100927.45
2018-08-11T19:01:44.575Z,100935.33
2018-08-11T19:04:12.558Z,100937.32
2018-08-11T19:06:40.511Z,100943.01
2018-08-11T19:09:10.607Z,100944.12
2018-08-11T19:11:38.487Z,100948.13
2018-08-11T19:14:06.859Z,100941.61
2018-08-11T19:16:34.639Z,100944.47
2018-08-11T19:19:02.475Z,100949.32
2018-08-11T19:21:30.255Z,100945.94
2018-08-11T19:23:58.041Z,100946.94
2018-08-11T19:26:25.871Z,100947.20
2018-08-11T19:28:53.803Z,100950.98
2018-08-11T19:31:21.635Z,100953.31
2018-08-11T19:33:49.517Z,100952.37
2018-08-11T19:38:44.746Z,100949.94
2018-08-11T19:41:12.675Z,100952.75
2018-08-11T19:43:40.503Z,100957.22
2018-08-11T19:46:08.581Z,100949.97
2018-08-11T19:48:36.428Z,100951.84
2018-08-11T19:51:04.897Z,100954.48
2018-08-11T19:53:32.761Z,100949.14
2018-08-11T19:56:00.708Z,100944.07
2018-08-11T19:58:28.491Z,100947.41
2018-08-11T20:00:56.328Z,100953.96
2018-08-11T20:03:24.255Z,100958.73
2018-08-11T20:05:52.123Z,100959.53
2018-08-11T20:08:19.881Z,100963.46
2018-08-11T20:10:47.753Z,100965.77
2018-08-11T20:13:16.460Z,100965.67
2018-08-11T20:15:44.241Z,100968.52
2018-08-11T20:18:12.132Z,100966.14
2018-08-11T20:20:40.003Z,100961.54
2018-08-11T20:23:07.953Z,100964.62
2018-08-11T20:25:35.985Z,100965.14
2018-08-11T20:28:03.640Z,100969.97
2018-08-11T20:30:31.666Z,100971.84
2018-08-11T20:32:59.513Z,100966.06
2018-08-11T20:35:27.554Z,100967.20
2018-08-11T20:37:55.455Z,100972.31
2018-08-11T20:40:23.391Z,100973.95
2018-08-11T20:42:51.298Z,100977.90
2018-08-11T20:45:19.155Z,100976.80
2018-08-11T20:47:47.134Z,100976.23
2018-08-11T20:50:15.170Z,100979.84
2018-08-11T20:52:43.044Z,100979.03
2018-08-11T20:55:10.967Z,100974.88
2018-08-11T20:57:38.958Z,100977.34
2018-08-11T21:00:10.688Z,100979.02
2018-08-11T21:02:38.439Z,100978.20
2018-08-11T21:05:10.012Z,100977.65
2018-08-11T21:07:38.471Z,100980.69
2018-08-11T21:10:09.357Z,100980.97
2018-08-11T21:12:37.403Z,100983.19
2018-08-11T21:15:06.412Z,100986.78
2018-08-11T21:17:34.195Z,100977.09
2018-08-11T21:20:02.072Z,100976.81
2018-08-11T21:22:29.916Z,100975.97
2018-08-11T21:24:57.747Z,100975.69
2018-08-11T21:27:25.661Z,100976.47
2018-08-11T21:29:53.446Z,100980.36
2018-08-11T21:32:21.315Z,100978.12
2018-08-11T21:34:49.644Z,100974.77
2018-08-11T21:37:17.553Z,100980.88
2018-08-11T21:39:45.356Z,100980.55
2018-08-11T21:42:13.191Z,100982.23
2018-08-11T21:44:41.165Z,100971.36
2018-08-11T21:47:09.099Z,100976.88
2018-08-11T21:49:36.959Z,100978.80
2018-08-11T21:52:04.968Z,100967.75
2018-08-11T21:54:32.806Z,100969.09
2018-08-11T21:57:00.625Z,100972.97
2018-08-11T21:59:28.448Z,100974.36
2018-08-11T22:01:56.367Z,100966.83
2018-08-11T22:04:28.811Z,100971.73
2018-08-11T22:06:56.695Z,100966.73
2018-08-11T22:09:24.569Z,100970.01
2018-08-11T22:11:52.421Z,100971.59
2018-08-11T22:14:20.292Z,100973.48
2018-08-11T22:16:48.121Z,100971.46
2018-08-11T22:19:16.043Z,100983.38
2018-08-11T22:21:43.888Z,100978.13
2018-08-11T22:24:11.759Z,100979.19
2018-08-11T22:26:39.610Z,100971.17
2018-08-11T22:29:07.522Z,100974.12
2018-08-11T22:31:35.459Z,100964.81
2018-08-11T22:34:03.300Z,100969.20
2018-08-11T22:36:31.105Z,100962.23
2018-08-11T22:38:58.922Z,100968.49
2018-08-11T22:41:26.744Z,100974.30
2018-08-11T22:43:54.630Z,100968.98
2018-08-11T22:46:22.499Z,100970.97
2018-08-11T22:48:50.452Z,100963.75
2018-08-11T22:51:18.889Z,100957.34
2018-08-11T22:53:46.762Z,100953.84
2018-08-11T22:56:14.578Z,100958.20
2018-08-11T22:58:42.531Z,100956.10
2018-08-11T23:01:10.289Z,100948.45
2018-08-11T23:03:38.238Z,100948.67
2018-08-11T23:06:06.160Z,100951.38
2018-08-11T23:08:34.019Z,100949.55
2018-08-11T23:11:01.854Z,100953.55
2018-08-11T23:13:29.672Z,100951.19
2018-08-11T23:15:57.569Z,100950.02
2018-08-11T23:18:25.507Z,100949.07
2018-08-11T23:20:53.335Z,100955.45
2018-08-11T23:23:21.173Z,100949.95
2018-08-11T23:25:49.010Z,100947.17
2018-08-11T23:28:16.878Z,100948.13
2018-08-11T23:30:44.751Z,100947.67
2018-08-11T23:33:12.648Z,100947.56
2018-08-11T23:35:40.503Z,100942.83
2018-08-11T23:38:08.457Z,100948.30
2018-08-11T23:40:36.395Z,100942.83
2018-08-11T23:43:04.316Z,100940.78
2018-08-11T23:45:32.233Z,100946.23
2018-08-11T23:48:00.136Z,100944.12
2018-08-11T23:50:28.008Z,100943.31
2018-08-11T23:52:55.932Z,100946.69
2018-08-11T23:55:23.795Z,100937.22
2018-08-11T23:57:51.607Z,100938.92
